sensor_id;sensor_type;location;lat;lon;timestamp;P1;durP1;ratioP1;P2;durP2;ratioP2
15022;SDS011;19850;49.576;10.880;2022-08-30T00:00:50;9.37;;;5.27;;
15022;SDS011;19850;49.576;10.880;2022-08-30T00:05:07;9.97;;;5.07;;
15022;SDS011;19850;49.576;10.880;2022-08-30T00:09:10;8.17;;;5.00;;
15022;SDS011;19850;49.576;10.880;2022-08-30T00:13:13;10.83;;;5.80;;
15022;SDS011;19850;49.576;10.880;2022-08-30T00:17:16;10.57;;;5.53;;
15022;SDS011;19850;49.576;10.880;2022-08-30T00:21:20;11.63;;;4.97;;
15022;SDS011;19850;49.576;10.880;2022-08-30T00:25:24;12.10;;;4.70;;
15022;SDS011;19850;49.576;10.880;2022-08-30T00:29:27;11.00;;;5.13;;
15022;SDS011;19850;49.576;10.880;2022-08-30T00:33:30;10.03;;;5.03;;
15022;SDS011;19850;49.576;10.880;2022-08-30T00:37:35;9.53;;;5.00;;
15022;SDS011;19850;49.576;10.880;2022-08-30T00:41:38;8.87;;;5.10;;
15022;SDS011;19850;49.576;10.880;2022-08-30T00:45:41;11.73;;;5.27;;
15022;SDS011;19850;49.576;10.880;2022-08-30T00:49:45;9.53;;;4.83;;
15022;SDS011;19850;49.576;10.880;2022-08-30T00:53:52;8.27;;;4.97;;
15022;SDS011;19850;49.576;10.880;2022-08-30T00:57:57;8.10;;;5.23;;
15022;SDS011;19850;49.576;10.880;2022-08-30T01:02:04;9.27;;;5.43;;
15022;SDS011;19850;49.576;10.880;2022-08-30T01:06:07;6.20;;;5.10;;
15022;SDS011;19850;49.576;10.880;2022-08-30T01:10:12;10.43;;;5.20;;
15022;SDS011;19850;49.576;10.880;2022-08-30T01:14:15;7.43;;;5.13;;
15022;SDS011;19850;49.576;10.880;2022-08-30T01:18:19;10.50;;;5.10;;
15022;SDS011;19850;49.576;10.880;2022-08-30T01:22:25;9.70;;;5.47;;
15022;SDS011;19850;49.576;10.880;2022-08-30T01:26:33;7.97;;;4.93;;
15022;SDS011;19850;49.576;10.880;2022-08-30T01:30:37;8.13;;;5.27;;
15022;SDS011;19850;49.576;10.880;2022-08-30T01:34:40;6.67;;;5.03;;
15022;SDS011;19850;49.576;10.880;2022-08-30T01:38:45;11.33;;;5.37;;
15022;SDS011;19850;49.576;10.880;2022-08-30T01:42:50;9.50;;;5.10;;
15022;SDS011;19850;49.576;10.880;2022-08-30T01:46:53;8.87;;;5.20;;
15022;SDS011;19850;49.576;10.880;2022-08-30T01:50:56;11.63;;;5.97;;
15022;SDS011;19850;49.576;10.880;2022-08-30T01:54:59;10.07;;;5.90;;
15022;SDS011;19850;49.576;10.880;2022-08-30T01:59:03;10.67;;;6.10;;
15022;SDS011;19850;49.576;10.880;2022-08-30T02:03:07;10.17;;;5.90;;
15022;SDS011;19850;49.576;10.880;2022-08-30T02:07:10;8.77;;;5.53;;
15022;SDS011;19850;49.576;10.880;2022-08-30T02:11:17;8.97;;;5.90;;
15022;SDS011;19850;49.576;10.880;2022-08-30T02:15:21;7.77;;;5.83;;
15022;SDS011;19850;49.576;10.880;2022-08-30T02:19:24;10.97;;;6.00;;
15022;SDS011;19850;49.576;10.880;2022-08-30T02:23:26;8.70;;;5.60;;
15022;SDS011;19850;49.576;10.880;2022-08-30T02:27:29;8.07;;;5.13;;
15022;SDS011;19850;49.576;10.880;2022-08-30T02:31:33;9.87;;;5.40;;
15022;SDS011;19850;49.576;10.880;2022-08-30T02:35:36;9.07;;;5.50;;
15022;SDS011;19850;49.576;10.880;2022-08-30T02:39:40;7.20;;;5.23;;
15022;SDS011;19850;49.576;10.880;2022-08-30T02:43:42;12.50;;;5.53;;
15022;SDS011;19850;49.576;10.880;2022-08-30T02:47:47;10.73;;;5.47;;
15022;SDS011;19850;49.576;10.880;2022-08-30T02:51:50;8.77;;;4.90;;
15022;SDS011;19850;49.576;10.880;2022-08-30T02:55:52;9.53;;;5.40;;
15022;SDS011;19850;49.576;10.880;2022-08-30T02:59:58;10.80;;;5.13;;
15022;SDS011;19850;49.576;10.880;2022-08-30T03:04:03;12.97;;;5.53;;
15022;SDS011;19850;49.576;10.880;2022-08-30T03:08:06;10.60;;;5.37;;
15022;SDS011;19850;49.576;10.880;2022-08-30T03:12:09;9.67;;;5.10;;
15022;SDS011;19850;49.576;10.880;2022-08-30T03:16:13;11.70;;;5.33;;
15022;SDS011;19850;49.576;10.880;2022-08-30T03:20:18;10.33;;;5.57;;
15022;SDS011;19850;49.576;10.880;2022-08-30T03:24:21;10.23;;;4.57;;
15022;SDS011;19850;49.576;10.880;2022-08-30T03:28:24;9.03;;;5.50;;
15022;SDS011;19850;49.576;10.880;2022-08-30T03:32:27;8.10;;;5.53;;
15022;SDS011;19850;49.576;10.880;2022-08-30T03:36:31;11.90;;;5.07;;
15022;SDS011;19850;49.576;10.880;2022-08-30T03:40:34;7.80;;;5.10;;
15022;SDS011;19850;49.576;10.880;2022-08-30T03:44:38;10.63;;;5.73;;
15022;SDS011;19850;49.576;10.880;2022-08-30T03:48:41;10.83;;;5.67;;
15022;SDS011;19850;49.576;10.880;2022-08-30T03:52:46;6.60;;;5.40;;
15022;SDS011;19850;49.576;10.880;2022-08-30T03:56:49;8.03;;;5.17;;
15022;SDS011;19850;49.576;10.880;2022-08-30T04:00:51;12.37;;;5.70;;
15022;SDS011;19850;49.576;10.880;2022-08-30T04:04:54;6.90;;;5.40;;
15022;SDS011;19850;49.576;10.880;2022-08-30T04:08:58;8.33;;;6.10;;
15022;SDS011;19850;49.576;10.880;2022-08-30T04:13:01;10.93;;;6.53;;
15022;SDS011;19850;49.576;10.880;2022-08-30T04:17:05;12.93;;;6.47;;
15022;SDS011;19850;49.576;10.880;2022-08-30T04:21:08;9.63;;;6.80;;
15022;SDS011;19850;49.576;10.880;2022-08-30T04:25:15;11.67;;;6.87;;
15022;SDS011;19850;49.576;10.880;2022-08-30T04:29:18;9.03;;;5.97;;
15022;SDS011;19850;49.576;10.880;2022-08-30T04:33:21;10.20;;;6.60;;
15022;SDS011;19850;49.576;10.880;2022-08-30T04:37:25;8.97;;;6.60;;
15022;SDS011;19850;49.576;10.880;2022-08-30T04:41:29;9.87;;;6.40;;
15022;SDS011;19850;49.576;10.880;2022-08-30T04:45:32;9.20;;;6.70;;
15022;SDS011;19850;49.576;10.880;2022-08-30T04:49:35;10.77;;;6.13;;
15022;SDS011;19850;49.576;10.880;2022-08-30T04:53:38;10.80;;;6.23;;
15022;SDS011;19850;49.576;10.880;2022-08-30T04:57:42;9.07;;;6.30;;
15022;SDS011;19850;49.576;10.880;2022-08-30T05:01:45;10.37;;;6.80;;
15022;SDS011;19850;49.576;10.880;2022-08-30T05:05:49;13.63;;;6.00;;
15022;SDS011;19850;49.576;10.880;2022-08-30T05:09:52;9.40;;;6.20;;
15022;SDS011;19850;49.576;10.880;2022-08-30T05:13:57;13.53;;;6.70;;
15022;SDS011;19850;49.576;10.880;2022-08-30T05:18:00;8.80;;;6.40;;
15022;SDS011;19850;49.576;10.880;2022-08-30T05:22:03;8.67;;;6.27;;
15022;SDS011;19850;49.576;10.880;2022-08-30T05:26:06;9.37;;;6.30;;
15022;SDS011;19850;49.576;10.880;2022-08-30T05:30:13;9.90;;;6.30;;
15022;SDS011;19850;49.576;10.880;2022-08-30T05:34:16;11.93;;;7.70;;
15022;SDS011;19850;49.576;10.880;2022-08-30T05:38:19;11.93;;;7.13;;
15022;SDS011;19850;49.576;10.880;2022-08-30T05:42:22;11.23;;;6.80;;
15022;SDS011;19850;49.576;10.880;2022-08-30T05:46:27;16.13;;;7.00;;
15022;SDS011;19850;49.576;10.880;2022-08-30T05:50:38;9.10;;;6.50;;
15022;SDS011;19850;49.576;10.880;2022-08-30T05:54:40;14.93;;;6.00;;
15022;SDS011;19850;49.576;10.880;2022-08-30T05:58:43;12.97;;;6.53;;
15022;SDS011;19850;49.576;10.880;2022-08-30T06:02:51;12.53;;;6.53;;
15022;SDS011;19850;49.576;10.880;2022-08-30T06:06:54;11.67;;;6.10;;
15022;SDS011;19850;49.576;10.880;2022-08-30T06:10:57;15.53;;;7.03;;
15022;SDS011;19850;49.576;10.880;2022-08-30T06:15:00;12.97;;;6.33;;
15022;SDS011;19850;49.576;10.880;2022-08-30T06:19:04;12.57;;;6.33;;
15022;SDS011;19850;49.576;10.880;2022-08-30T06:23:08;18.47;;;7.00;;
15022;SDS011;19850;49.576;10.880;2022-08-30T06:27:12;14.27;;;6.20;;
15022;SDS011;19850;49.576;10.880;2022-08-30T06:31:16;14.63;;;5.87;;
15022;SDS011;19850;49.576;10.880;2022-08-30T06:35:21;15.10;;;6.13;;
15022;SDS011;19850;49.576;10.880;2022-08-30T06:39:24;13.93;;;5.40;;
15022;SDS011;19850;49.576;10.880;2022-08-30T06:43:27;13.33;;;6.07;;
15022;SDS011;19850;49.576;10.880;2022-08-30T06:47:30;12.30;;;6.07;;
15022;SDS011;19850;49.576;10.880;2022-08-30T06:51:41;12.17;;;5.77;;
15022;SDS011;19850;49.576;10.880;2022-08-30T06:55:44;13.37;;;5.10;;
15022;SDS011;19850;49.576;10.880;2022-08-30T06:59:47;10.17;;;5.53;;
15022;SDS011;19850;49.576;10.880;2022-08-30T07:03:55;9.00;;;5.37;;
15022;SDS011;19850;49.576;10.880;2022-08-30T07:08:00;6.90;;;5.00;;
15022;SDS011;19850;49.576;10.880;2022-08-30T07:12:03;10.73;;;5.63;;
15022;SDS011;19850;49.576;10.880;2022-08-30T07:16:10;11.97;;;5.40;;
15022;SDS011;19850;49.576;10.880;2022-08-30T07:20:13;11.60;;;5.13;;
15022;SDS011;19850;49.576;10.880;2022-08-30T07:24:18;10.97;;;5.53;;
15022;SDS011;19850;49.576;10.880;2022-08-30T07:28:21;12.43;;;5.50;;
15022;SDS011;19850;49.576;10.880;2022-08-30T07:32:24;14.07;;;5.50;;
15022;SDS011;19850;49.576;10.880;2022-08-30T07:36:27;11.87;;;5.57;;
15022;SDS011;19850;49.576;10.880;2022-08-30T07:40:31;13.40;;;5.70;;
15022;SDS011;19850;49.576;10.880;2022-08-30T07:44:34;17.77;;;6.50;;
15022;SDS011;19850;49.576;10.880;2022-08-30T07:48:37;14.63;;;5.87;;
15022;SDS011;19850;49.576;10.880;2022-08-30T07:52:40;9.63;;;5.10;;
15022;SDS011;19850;49.576;10.880;2022-08-30T07:56:45;9.20;;;5.17;;
15022;SDS011;19850;49.576;10.880;2022-08-30T08:00:48;12.27;;;5.30;;
15022;SDS011;19850;49.576;10.880;2022-08-30T08:04:51;11.43;;;5.80;;
15022;SDS011;19850;49.576;10.880;2022-08-30T08:08:54;14.57;;;5.67;;
15022;SDS011;19850;49.576;10.880;2022-08-30T08:13:03;11.87;;;5.20;;
15022;SDS011;19850;49.576;10.880;2022-08-30T08:17:07;13.97;;;5.50;;
15022;SDS011;19850;49.576;10.880;2022-08-30T08:21:10;10.87;;;5.90;;
15022;SDS011;19850;49.576;10.880;2022-08-30T08:25:13;10.57;;;5.60;;
15022;SDS011;19850;49.576;10.880;2022-08-30T08:29:17;13.87;;;5.73;;
15022;SDS011;19850;49.576;10.880;2022-08-30T08:33:21;17.33;;;6.10;;
15022;SDS011;19850;49.576;10.880;2022-08-30T08:37:25;11.10;;;5.50;;
15022;SDS011;19850;49.576;10.880;2022-08-30T08:41:35;14.33;;;5.43;;
15022;SDS011;19850;49.576;10.880;2022-08-30T08:45:47;13.07;;;5.43;;
15022;SDS011;19850;49.576;10.880;2022-08-30T08:49:53;13.87;;;5.73;;
15022;SDS011;19850;49.576;10.880;2022-08-30T08:54:00;14.47;;;5.23;;
15022;SDS011;19850;49.576;10.880;2022-08-30T08:58:06;18.27;;;5.80;;
15022;SDS011;19850;49.576;10.880;2022-08-30T09:02:22;9.03;;;4.73;;
15022;SDS011;19850;49.576;10.880;2022-08-30T09:06:41;12.43;;;4.67;;
15022;SDS011;19850;49.576;10.880;2022-08-30T09:10:52;9.50;;;5.00;;
15022;SDS011;19850;49.576;10.880;2022-08-30T09:15:00;10.50;;;4.40;;
15022;SDS011;19850;49.576;10.880;2022-08-30T09:19:07;8.20;;;4.13;;
15022;SDS011;19850;49.576;10.880;2022-08-30T09:23:19;7.30;;;4.60;;
15022;SDS011;19850;49.576;10.880;2022-08-30T09:27:25;8.50;;;4.40;;
15022;SDS011;19850;49.576;10.880;2022-08-30T09:31:31;7.67;;;4.03;;
15022;SDS011;19850;49.576;10.880;2022-08-30T09:35:37;7.53;;;4.83;;
15022;SDS011;19850;49.576;10.880;2022-08-30T09:39:40;8.93;;;4.30;;
15022;SDS011;19850;49.576;10.880;2022-08-30T09:43:46;10.40;;;4.60;;
15022;SDS011;19850;49.576;10.880;2022-08-30T09:48:22;8.73;;;4.60;;
15022;SDS011;19850;49.576;10.880;2022-08-30T09:52:33;9.50;;;4.03;;
15022;SDS011;19850;49.576;10.880;2022-08-30T09:56:42;9.50;;;4.57;;
15022;SDS011;19850;49.576;10.880;2022-08-30T10:00:54;6.87;;;4.23;;
15022;SDS011;19850;49.576;10.880;2022-08-30T10:05:02;9.77;;;4.37;;
15022;SDS011;19850;49.576;10.880;2022-08-30T10:09:13;8.90;;;4.43;;
15022;SDS011;19850;49.576;10.880;2022-08-30T10:13:31;7.50;;;4.33;;
15022;SDS011;19850;49.576;10.880;2022-08-30T10:17:50;9.93;;;4.00;;
15022;SDS011;19850;49.576;10.880;2022-08-30T10:21:58;8.00;;;4.07;;
15022;SDS011;19850;49.576;10.880;2022-08-30T10:26:08;9.20;;;4.17;;
15022;SDS011;19850;49.576;10.880;2022-08-30T10:30:19;5.93;;;3.60;;
15022;SDS011;19850;49.576;10.880;2022-08-30T10:34:24;9.03;;;3.30;;
15022;SDS011;19850;49.576;10.880;2022-08-30T10:38:29;6.10;;;3.60;;
15022;SDS011;19850;49.576;10.880;2022-08-30T10:42:36;6.47;;;3.60;;
15022;SDS011;19850;49.576;10.880;2022-08-30T10:46:42;9.30;;;3.67;;
15022;SDS011;19850;49.576;10.880;2022-08-30T10:50:55;8.40;;;3.80;;
15022;SDS011;19850;49.576;10.880;2022-08-30T10:55:01;7.90;;;3.70;;
15022;SDS011;19850;49.576;10.880;2022-08-30T10:59:11;6.43;;;3.40;;
15022;SDS011;19850;49.576;10.880;2022-08-30T11:03:26;6.07;;;3.50;;
15022;SDS011;19850;49.576;10.880;2022-08-30T11:07:40;8.23;;;3.70;;
15022;SDS011;19850;49.576;10.880;2022-08-30T11:16:33;5.97;;;3.57;;
15022;SDS011;19850;49.576;10.880;2022-08-30T11:20:39;5.50;;;2.80;;
15022;SDS011;19850;49.576;10.880;2022-08-30T11:24:58;5.17;;;2.90;;
15022;SDS011;19850;49.576;10.880;2022-08-30T11:33:50;5.10;;;3.40;;
15022;SDS011;19850;49.576;10.880;2022-08-30T11:37:53;7.57;;;3.37;;
15022;SDS011;19850;49.576;10.880;2022-08-30T11:42:08;4.90;;;3.10;;
15022;SDS011;19850;49.576;10.880;2022-08-30T11:46:15;5.67;;;3.20;;
15022;SDS011;19850;49.576;10.880;2022-08-30T11:50:21;6.67;;;3.40;;
15022;SDS011;19850;49.576;10.880;2022-08-30T11:54:29;6.97;;;3.47;;
15022;SDS011;19850;49.576;10.880;2022-08-30T11:58:40;6.07;;;3.07;;
15022;SDS011;19850;49.576;10.880;2022-08-30T12:02:46;7.03;;;3.37;;
15022;SDS011;19850;49.576;10.880;2022-08-30T12:06:56;6.53;;;3.27;;
15022;SDS011;19850;49.576;10.880;2022-08-30T12:11:01;6.23;;;3.00;;
15022;SDS011;19850;49.576;10.880;2022-08-30T12:15:05;3.60;;;2.90;;
15022;SDS011;19850;49.576;10.880;2022-08-30T12:19:09;5.70;;;2.80;;
15022;SDS011;19850;49.576;10.880;2022-08-30T12:23:22;5.03;;;3.23;;
15022;SDS011;19850;49.576;10.880;2022-08-30T12:27:31;3.90;;;2.53;;
15022;SDS011;19850;49.576;10.880;2022-08-30T12:31:37;5.57;;;2.93;;
15022;SDS011;19850;49.576;10.880;2022-08-30T12:35:42;4.90;;;3.03;;
15022;SDS011;19850;49.576;10.880;2022-08-30T12:39:47;3.93;;;2.60;;
15022;SDS011;19850;49.576;10.880;2022-08-30T12:43:54;4.03;;;2.40;;
15022;SDS011;19850;49.576;10.880;2022-08-30T12:48:00;5.33;;;2.50;;
15022;SDS011;19850;49.576;10.880;2022-08-30T12:52:14;4.23;;;2.40;;
15022;SDS011;19850;49.576;10.880;2022-08-30T12:56:20;5.10;;;2.57;;
15022;SDS011;19850;49.576;10.880;2022-08-30T13:00:44;3.83;;;2.37;;
15022;SDS011;19850;49.576;10.880;2022-08-30T13:04:48;4.90;;;2.50;;
15022;SDS011;19850;49.576;10.880;2022-08-30T13:08:52;5.50;;;2.67;;
15022;SDS011;19850;49.576;10.880;2022-08-30T13:13:00;6.33;;;2.67;;
15022;SDS011;19850;49.576;10.880;2022-08-30T13:17:09;4.63;;;2.53;;
15022;SDS011;19850;49.576;10.880;2022-08-30T13:21:22;5.17;;;2.57;;
15022;SDS011;19850;49.576;10.880;2022-08-30T13:25:27;4.43;;;2.30;;
15022;SDS011;19850;49.576;10.880;2022-08-30T13:29:34;6.73;;;2.67;;
15022;SDS011;19850;49.576;10.880;2022-08-30T13:33:37;4.30;;;2.40;;
15022;SDS011;19850;49.576;10.880;2022-08-30T13:37:40;4.17;;;2.70;;
15022;SDS011;19850;49.576;10.880;2022-08-30T13:41:51;5.70;;;3.00;;
15022;SDS011;19850;49.576;10.880;2022-08-30T13:45:55;5.27;;;2.67;;
15022;SDS011;19850;49.576;10.880;2022-08-30T13:49:58;5.07;;;2.90;;
15022;SDS011;19850;49.576;10.880;2022-08-30T13:54:01;5.43;;;3.00;;
15022;SDS011;19850;49.576;10.880;2022-08-30T13:58:04;3.97;;;2.50;;
15022;SDS011;19850;49.576;10.880;2022-08-30T14:02:11;5.23;;;2.80;;
15022;SDS011;19850;49.576;10.880;2022-08-30T14:06:14;4.03;;;2.80;;
15022;SDS011;19850;49.576;10.880;2022-08-30T14:10:34;4.95;;;2.83;;
15022;SDS011;19850;49.576;10.880;2022-08-30T14:14:47;3.23;;;2.60;;
15022;SDS011;19850;49.576;10.880;2022-08-30T14:18:55;4.93;;;2.77;;
15022;SDS011;19850;49.576;10.880;2022-08-30T14:22:59;4.13;;;2.70;;
15022;SDS011;19850;49.576;10.880;2022-08-30T14:27:11;3.47;;;2.60;;
15022;SDS011;19850;49.576;10.880;2022-08-30T14:31:18;5.00;;;2.70;;
15022;SDS011;19850;49.576;10.880;2022-08-30T14:35:22;5.90;;;2.73;;
15022;SDS011;19850;49.576;10.880;2022-08-30T14:39:25;7.60;;;2.60;;
15022;SDS011;19850;49.576;10.880;2022-08-30T14:43:28;3.97;;;2.60;;
15022;SDS011;19850;49.576;10.880;2022-08-30T14:47:31;5.47;;;2.67;;
15022;SDS011;19850;49.576;10.880;2022-08-30T14:51:36;3.67;;;2.57;;
15022;SDS011;19850;49.576;10.880;2022-08-30T14:55:39;4.57;;;2.50;;
15022;SDS011;19850;49.576;10.880;2022-08-30T14:59:42;3.97;;;2.70;;
15022;SDS011;19850;49.576;10.880;2022-08-30T15:03:46;4.83;;;2.77;;
15022;SDS011;19850;49.576;10.880;2022-08-30T15:07:52;4.73;;;2.90;;
15022;SDS011;19850;49.576;10.880;2022-08-30T15:11:56;4.87;;;2.40;;
15022;SDS011;19850;49.576;10.880;2022-08-30T15:15:59;4.57;;;2.77;;
15022;SDS011;19850;49.576;10.880;2022-08-30T15:20:03;10.83;;;3.03;;
15022;SDS011;19850;49.576;10.880;2022-08-30T15:24:13;4.27;;;2.80;;
15022;SDS011;19850;49.576;10.880;2022-08-30T15:28:16;4.53;;;2.57;;
15022;SDS011;19850;49.576;10.880;2022-08-30T15:32:19;6.07;;;2.80;;
15022;SDS011;19850;49.576;10.880;2022-08-30T15:36:22;4.20;;;2.53;;
15022;SDS011;19850;49.576;10.880;2022-08-30T15:40:27;2.73;;;2.33;;
15022;SDS011;19850;49.576;10.880;2022-08-30T15:44:30;3.53;;;2.40;;
15022;SDS011;19850;49.576;10.880;2022-08-30T15:48:34;4.30;;;2.77;;
15022;SDS011;19850;49.576;10.880;2022-08-30T15:52:46;4.63;;;2.80;;
15022;SDS011;19850;49.576;10.880;2022-08-30T15:56:50;4.23;;;2.60;;
15022;SDS011;19850;49.576;10.880;2022-08-30T16:00:59;5.93;;;3.00;;
15022;SDS011;19850;49.576;10.880;2022-08-30T16:05:03;4.43;;;2.50;;
15022;SDS011;19850;49.576;10.880;2022-08-30T16:09:06;4.43;;;2.73;;
15022;SDS011;19850;49.576;10.880;2022-08-30T16:13:11;3.43;;;2.53;;
15022;SDS011;19850;49.576;10.880;2022-08-30T16:17:14;7.53;;;3.00;;
15022;SDS011;19850;49.576;10.880;2022-08-30T16:21:19;5.33;;;2.83;;
15022;SDS011;19850;49.576;10.880;2022-08-30T16:25:24;5.63;;;2.73;;
15022;SDS011;19850;49.576;10.880;2022-08-30T16:29:42;6.37;;;2.50;;
15022;SDS011;19850;49.576;10.880;2022-08-30T16:33:45;4.97;;;2.80;;
15022;SDS011;19850;49.576;10.880;2022-08-30T16:37:53;3.57;;;2.50;;
15022;SDS011;19850;49.576;10.880;2022-08-30T16:41:56;5.30;;;2.83;;
15022;SDS011;19850;49.576;10.880;2022-08-30T16:46:00;6.87;;;3.00;;
15022;SDS011;19850;49.576;10.880;2022-08-30T16:50:07;4.40;;;2.90;;
15022;SDS011;19850;49.576;10.880;2022-08-30T16:54:10;8.10;;;3.03;;
15022;SDS011;19850;49.576;10.880;2022-08-30T16:58:14;5.83;;;3.17;;
15022;SDS011;19850;49.576;10.880;2022-08-30T17:02:21;7.57;;;3.27;;
15022;SDS011;19850;49.576;10.880;2022-08-30T17:06:25;4.23;;;2.97;;
15022;SDS011;19850;49.576;10.880;2022-08-30T17:10:28;5.57;;;4.17;;
15022;SDS011;19850;49.576;10.880;2022-08-30T17:14:33;7.10;;;3.87;;
15022;SDS011;19850;49.576;10.880;2022-08-30T17:18:38;6.00;;;3.93;;
15022;SDS011;19850;49.576;10.880;2022-08-30T17:22:42;7.33;;;3.70;;
15022;SDS011;19850;49.576;10.880;2022-08-30T17:26:46;5.53;;;3.57;;
15022;SDS011;19850;49.576;10.880;2022-08-30T17:30:49;7.93;;;3.17;;
15022;SDS011;19850;49.576;10.880;2022-08-30T17:34:53;7.50;;;4.63;;
15022;SDS011;19850;49.576;10.880;2022-08-30T17:38:56;6.17;;;4.47;;
15022;SDS011;19850;49.576;10.880;2022-08-30T17:42:59;6.03;;;4.50;;
15022;SDS011;19850;49.576;10.880;2022-08-30T17:47:02;9.87;;;4.60;;
15022;SDS011;19850;49.576;10.880;2022-08-30T17:51:07;8.63;;;4.57;;
15022;SDS011;19850;49.576;10.880;2022-08-30T17:55:11;6.30;;;3.70;;
15022;SDS011;19850;49.576;10.880;2022-08-30T17:59:14;7.13;;;3.70;;
15022;SDS011;19850;49.576;10.880;2022-08-30T18:03:19;7.37;;;3.70;;
15022;SDS011;19850;49.576;10.880;2022-08-30T18:07:25;6.33;;;3.50;;
15022;SDS011;19850;49.576;10.880;2022-08-30T18:11:28;5.50;;;2.90;;
15022;SDS011;19850;49.576;10.880;2022-08-30T18:15:31;10.50;;;3.70;;
15022;SDS011;19850;49.576;10.880;2022-08-30T18:19:34;6.10;;;3.80;;
15022;SDS011;19850;49.576;10.880;2022-08-30T18:23:48;7.37;;;3.67;;
15022;SDS011;19850;49.576;10.880;2022-08-30T18:27:51;6.03;;;3.40;;
15022;SDS011;19850;49.576;10.880;2022-08-30T18:31:59;10.17;;;3.97;;
15022;SDS011;19850;49.576;10.880;2022-08-30T18:36:03;6.23;;;3.50;;
15022;SDS011;19850;49.576;10.880;2022-08-30T18:40:08;4.67;;;3.30;;
15022;SDS011;19850;49.576;10.880;2022-08-30T18:44:19;10.50;;;3.57;;
15022;SDS011;19850;49.576;10.880;2022-08-30T18:48:29;7.43;;;2.80;;
15022;SDS011;19850;49.576;10.880;2022-08-30T18:52:32;7.77;;;3.30;;
15022;SDS011;19850;49.576;10.880;2022-08-30T18:56:37;6.33;;;2.97;;
15022;SDS011;19850;49.576;10.880;2022-08-30T19:00:45;5.83;;;3.00;;
15022;SDS011;19850;49.576;10.880;2022-08-30T19:04:49;7.83;;;3.07;;
15022;SDS011;19850;49.576;10.880;2022-08-30T19:08:52;7.07;;;3.20;;
15022;SDS011;19850;49.576;10.880;2022-08-30T19:12:57;7.10;;;3.00;;
15022;SDS011;19850;49.576;10.880;2022-08-30T19:17:03;5.13;;;3.00;;
15022;SDS011;19850;49.576;10.880;2022-08-30T19:21:07;5.77;;;3.37;;
15022;SDS011;19850;49.576;10.880;2022-08-30T19:25:15;6.37;;;2.90;;
15022;SDS011;19850;49.576;10.880;2022-08-30T19:29:20;4.07;;;3.00;;
15022;SDS011;19850;49.576;10.880;2022-08-30T19:33:24;4.00;;;2.73;;
15022;SDS011;19850;49.576;10.880;2022-08-30T19:37:27;4.63;;;2.80;;
15022;SDS011;19850;49.576;10.880;2022-08-30T19:41:30;4.93;;;2.90;;
15022;SDS011;19850;49.576;10.880;2022-08-30T19:45:35;5.90;;;3.00;;
15022;SDS011;19850;49.576;10.880;2022-08-30T19:49:38;7.53;;;3.33;;
15022;SDS011;19850;49.576;10.880;2022-08-30T19:53:41;4.93;;;2.83;;
15022;SDS011;19850;49.576;10.880;2022-08-30T19:57:44;3.77;;;2.67;;
15022;SDS011;19850;49.576;10.880;2022-08-30T20:01:50;8.47;;;3.30;;
15022;SDS011;19850;49.576;10.880;2022-08-30T20:05:53;3.97;;;2.60;;
15022;SDS011;19850;49.576;10.880;2022-08-30T20:09:57;8.57;;;3.07;;
15022;SDS011;19850;49.576;10.880;2022-08-30T20:14:00;5.33;;;2.87;;
15022;SDS011;19850;49.576;10.880;2022-08-30T20:18:04;5.17;;;3.10;;
15022;SDS011;19850;49.576;10.880;2022-08-30T20:22:15;4.87;;;3.00;;
15022;SDS011;19850;49.576;10.880;2022-08-30T20:26:18;4.47;;;3.17;;
15022;SDS011;19850;49.576;10.880;2022-08-30T20:30:31;5.17;;;3.10;;
15022;SDS011;19850;49.576;10.880;2022-08-30T20:34:36;5.63;;;2.93;;
15022;SDS011;19850;49.576;10.880;2022-08-30T20:38:40;7.03;;;3.20;;
15022;SDS011;19850;49.576;10.880;2022-08-30T20:42:44;5.83;;;3.33;;
15022;SDS011;19850;49.576;10.880;2022-08-30T20:46:47;5.23;;;2.97;;
15022;SDS011;19850;49.576;10.880;2022-08-30T20:50:52;5.63;;;2.53;;
15022;SDS011;19850;49.576;10.880;2022-08-30T20:54:55;4.63;;;2.90;;
15022;SDS011;19850;49.576;10.880;2022-08-30T20:58:58;5.23;;;2.93;;
15022;SDS011;19850;49.576;10.880;2022-08-30T21:03:03;5.37;;;2.97;;
15022;SDS011;19850;49.576;10.880;2022-08-30T21:07:29;6.10;;;2.73;;
15022;SDS011;19850;49.576;10.880;2022-08-30T21:11:32;7.37;;;3.20;;
15022;SDS011;19850;49.576;10.880;2022-08-30T21:15:36;4.17;;;3.00;;
15022;SDS011;19850;49.576;10.880;2022-08-30T21:19:38;5.27;;;3.20;;
15022;SDS011;19850;49.576;10.880;2022-08-30T21:23:45;6.33;;;3.10;;
15022;SDS011;19850;49.576;10.880;2022-08-30T21:27:48;4.57;;;3.23;;
15022;SDS011;19850;49.576;10.880;2022-08-30T21:31:53;5.07;;;3.20;;
15022;SDS011;19850;49.576;10.880;2022-08-30T21:35:56;6.37;;;3.27;;
15022;SDS011;19850;49.576;10.880;2022-08-30T21:40:18;4.40;;;3.20;;
15022;SDS011;19850;49.576;10.880;2022-08-30T21:44:21;9.07;;;3.40;;
15022;SDS011;19850;49.576;10.880;2022-08-30T21:48:25;5.73;;;3.60;;
15022;SDS011;19850;49.576;10.880;2022-08-30T21:52:28;5.73;;;3.70;;
15022;SDS011;19850;49.576;10.880;2022-08-30T21:56:33;5.93;;;3.77;;
15022;SDS011;19850;49.576;10.880;2022-08-30T22:00:36;6.80;;;3.70;;
15022;SDS011;19850;49.576;10.880;2022-08-30T22:04:39;6.03;;;3.60;;
15022;SDS011;19850;49.576;10.880;2022-08-30T22:08:43;4.90;;;3.50;;
15022;SDS011;19850;49.576;10.880;2022-08-30T22:17:30;4.93;;;3.33;;
15022;SDS011;19850;49.576;10.880;2022-08-30T22:21:33;5.37;;;3.20;;
15022;SDS011;19850;49.576;10.880;2022-08-30T22:25:37;8.63;;;3.57;;
15022;SDS011;19850;49.576;10.880;2022-08-30T22:29:42;4.57;;;3.40;;
15022;SDS011;19850;49.576;10.880;2022-08-30T22:33:45;5.20;;;3.10;;
15022;SDS011;19850;49.576;10.880;2022-08-30T22:37:48;5.97;;;3.60;;
15022;SDS011;19850;49.576;10.880;2022-08-30T22:41:53;6.00;;;3.40;;
15022;SDS011;19850;49.576;10.880;2022-08-30T22:45:57;6.83;;;3.63;;
15022;SDS011;19850;49.576;10.880;2022-08-30T22:50:01;9.27;;;3.50;;
15022;SDS011;19850;49.576;10.880;2022-08-30T22:54:04;8.30;;;3.57;;
15022;SDS011;19850;49.576;10.880;2022-08-30T22:58:07;6.07;;;3.57;;
15022;SDS011;19850;49.576;10.880;2022-08-30T23:02:12;7.00;;;3.87;;
15022;SDS011;19850;49.576;10.880;2022-08-30T23:06:14;6.27;;;3.40;;
15022;SDS011;19850;49.576;10.880;2022-08-30T23:10:17;6.53;;;3.80;;
15022;SDS011;19850;49.576;10.880;2022-08-30T23:14:22;6.80;;;3.57;;
15022;SDS011;19850;49.576;10.880;2022-08-30T23:18:26;6.57;;;4.00;;
15022;SDS011;19850;49.576;10.880;2022-08-30T23:22:29;8.13;;;3.90;;
15022;SDS011;19850;49.576;10.880;2022-08-30T23:26:33;10.57;;;3.93;;
15022;SDS011;19850;49.576;10.880;2022-08-30T23:30:53;5.77;;;3.50;;
15022;SDS011;19850;49.576;10.880;2022-08-30T23:35:15;6.07;;;4.03;;
15022;SDS011;19850;49.576;10.880;2022-08-30T23:39:36;9.80;;;3.67;;
15022;SDS011;19850;49.576;10.880;2022-08-30T23:43:56;7.23;;;3.97;;
15022;SDS011;19850;49.576;10.880;2022-08-30T23:48:16;5.30;;;3.73;;
15022;SDS011;19850;49.576;10.880;2022-08-30T23:52:38;6.40;;;3.93;;
15022;SDS011;19850;49.576;10.880;2022-08-30T23:56:58;7.50;;;3.83;;
